Arcadia, Kansas
Current Conditions -  °F | °C
As of 2:35 PM on Saturday 25 Oct 2014 (Local Time) from KPTS Reporting Station
Clear Clear  
Wind Chill: 28°   Ceiling: Unl
Heat Index: 29°   Visibility: 10mi
Dew Point: 19°   Wind: 3mph
Humidity: 58%   Direction: 160°SSE
Pressure: 30.03"   Gusts: NA
Location:  37.64°N, 94.62°W
Report Text: KPTS 251935Z AUTO 16003KT 10SM CLR 28/19 A3003 RMK AO2 T02760187
Loading
Personal Weather Stations






























Interactive Weather Map
Tropical Storm Tracking
New forecast layout! Learn more

10-Day Weather Forecast

Advertisements
Track Severe Weather on mobile